createdAt,value
2023-04-06T00:01:33.363Z,100666.88
2023-04-06T00:04:01.136Z,100715.41
2023-04-06T00:06:28.563Z,100761.81
2023-04-06T00:08:57.323Z,100739.13
2023-04-06T00:11:24.566Z,100768.88
2023-04-06T00:13:53.392Z,100750.09
2023-04-06T00:16:23.008Z,100765.78
2023-04-06T00:18:51.625Z,100741.53
2023-04-06T00:21:18.695Z,100762.13
2023-04-06T00:23:49.018Z,100750.78
2023-04-06T00:26:15.968Z,100756.75
2023-04-06T00:28:43.336Z,100757.94
2023-04-06T00:31:11.751Z,100759.00
2023-04-06T00:33:39.102Z,100745.13
2023-04-06T00:36:06.895Z,100762.63
2023-04-06T00:38:34.559Z,100751.44
2023-04-06T00:41:01.781Z,100726.28
2023-04-06T00:43:29.268Z,100757.66
2023-04-06T00:45:56.566Z,100752.84
2023-04-06T00:48:25.420Z,100744.50
2023-04-06T00:50:52.612Z,100730.84
2023-04-06T00:53:20.127Z,100742.97
2023-04-06T00:55:47.248Z,100745.44
2023-04-06T00:58:14.553Z,100732.34
2023-04-06T01:00:42.378Z,100748.56
2023-04-06T01:03:09.841Z,100736.88
2023-04-06T01:05:41.553Z,100689.31
2023-04-06T01:08:09.220Z,100712.75
2023-04-06T01:10:36.417Z,100709.44
2023-04-06T01:13:03.970Z,100739.22
2023-04-06T01:15:31.361Z,100745.47
2023-04-06T01:17:58.969Z,100745.41
2023-04-06T01:20:26.215Z,100743.72
2023-04-06T01:22:55.086Z,100710.16
2023-04-06T01:25:22.092Z,100742.50
2023-04-06T01:27:49.448Z,100736.06
2023-04-06T01:30:18.251Z,100725.63
2023-04-06T01:32:46.110Z,100702.81
2023-04-06T01:35:13.302Z,100739.13
2023-04-06T01:37:40.521Z,100714.63
2023-04-06T01:40:10.679Z,100698.50
2023-04-06T01:42:38.137Z,100731.53
2023-04-06T01:45:15.314Z,100733.13
2023-04-06T01:47:43.050Z,100735.28
2023-04-06T01:50:10.684Z,100720.81
2023-04-06T01:52:38.937Z,100728.69
2023-04-06T01:55:06.708Z,100700.66
2023-04-06T01:57:36.113Z,100695.97
2023-04-06T02:00:02.998Z,100727.69
2023-04-06T02:02:30.769Z,100721.88
2023-04-06T02:04:57.961Z,100720.75
2023-04-06T02:07:25.284Z,100714.38
2023-04-06T02:09:56.278Z,100654.94
2023-04-06T02:12:25.024Z,100714.84
2023-04-06T02:14:53.926Z,100712.31
2023-04-06T02:17:21.518Z,100723.22
2023-04-06T02:19:48.628Z,100713.34
2023-04-06T02:22:16.277Z,100717.59
2023-04-06T02:24:43.386Z,100714.28
2023-04-06T02:27:11.329Z,100711.44
2023-04-06T02:29:38.250Z,100706.69
2023-04-06T02:32:07.203Z,100702.00
2023-04-06T02:34:34.213Z,100690.69
2023-04-06T02:37:01.683Z,100691.28
2023-04-06T02:39:28.722Z,100702.66
2023-04-06T02:41:57.081Z,100696.94
2023-04-06T02:44:24.108Z,100709.50
2023-04-06T02:46:51.853Z,100706.00
2023-04-06T02:49:20.270Z,100700.63
2023-04-06T02:51:47.681Z,100701.50
2023-04-06T02:54:14.684Z,100707.00
2023-04-06T02:56:42.020Z,100713.78
2023-04-06T02:59:09.243Z,100713.03
2023-04-06T03:01:37.320Z,100673.19
2023-04-06T03:04:04.464Z,100670.28
2023-04-06T03:06:33.133Z,100709.50
2023-04-06T03:09:00.449Z,100705.66
2023-04-06T03:11:27.855Z,100707.66
2023-04-06T03:13:55.225Z,100684.41
2023-04-06T03:16:23.100Z,100705.91
2023-04-06T03:18:50.430Z,100637.50
2023-04-06T03:21:17.761Z,100712.59
2023-04-06T03:23:46.058Z,100700.72
2023-04-06T03:26:13.411Z,100703.41
2023-04-06T03:28:40.662Z,100714.03
2023-04-06T03:31:08.216Z,100712.91
2023-04-06T03:33:35.364Z,100711.31
2023-04-06T03:36:02.723Z,100712.06
2023-04-06T03:38:29.851Z,100712.63
2023-04-06T03:40:58.452Z,100710.34
2023-04-06T03:43:26.148Z,100708.44
2023-04-06T03:45:53.488Z,100691.31
2023-04-06T03:48:20.702Z,100704.72
2023-04-06T03:50:48.010Z,100707.81
2023-04-06T03:53:15.221Z,100707.25
2023-04-06T03:55:42.486Z,100709.88
2023-04-06T03:58:11.046Z,100711.84
2023-04-06T04:00:39.032Z,100661.16
2023-04-06T04:03:06.581Z,100705.41
2023-04-06T04:05:34.023Z,100713.75
2023-04-06T04:08:01.040Z,100682.84
2023-04-06T04:10:28.561Z,100704.38
2023-04-06T04:12:55.960Z,100713.75
2023-04-06T04:15:24.935Z,100709.25
2023-04-06T04:17:52.071Z,100613.03
2023-04-06T04:20:19.534Z,100716.75
2023-04-06T04:22:47.164Z,100717.31
2023-04-06T04:25:14.715Z,100717.78
2023-04-06T04:27:41.688Z,100718.72
2023-04-06T04:30:09.595Z,100717.38
2023-04-06T04:32:38.076Z,100718.03
2023-04-06T04:35:06.043Z,100720.66
2023-04-06T04:37:33.080Z,100716.50
2023-04-06T04:40:00.500Z,100712.28
2023-04-06T04:42:27.589Z,100690.78
2023-04-06T04:44:54.894Z,100718.75
2023-04-06T04:47:21.856Z,100722.06
2023-04-06T04:49:50.497Z,100717.19
2023-04-06T04:52:17.512Z,100695.03
2023-04-06T04:54:45.184Z,100718.34
2023-04-06T04:57:12.646Z,100709.06
2023-04-06T04:59:41.221Z,100622.22
2023-04-06T05:02:13.960Z,100617.06
2023-04-06T05:04:41.775Z,100717.88
2023-04-06T05:07:10.835Z,100702.50
2023-04-06T05:09:38.141Z,100717.31
2023-04-06T05:12:05.569Z,100681.25
2023-04-06T05:14:35.422Z,100713.28
2023-04-06T05:17:08.416Z,100717.50
2023-04-06T05:19:38.832Z,100679.50
2023-04-06T05:22:06.091Z,100666.38
2023-04-06T05:24:36.320Z,100694.50
2023-04-06T05:27:03.933Z,100699.44
2023-04-06T05:29:31.359Z,100695.31
2023-04-06T05:31:58.592Z,100673.41
2023-04-06T05:34:26.130Z,100717.00
2023-04-06T05:36:53.204Z,100708.88
2023-04-06T05:39:20.576Z,100667.69
2023-04-06T05:41:49.891Z,100707.84
2023-04-06T05:44:17.309Z,100669.28
2023-04-06T05:46:44.722Z,100695.94
2023-04-06T05:49:12.409Z,100721.66
2023-04-06T05:51:40.138Z,100650.25
2023-04-06T05:54:09.401Z,100707.38
2023-04-06T05:56:44.114Z,100668.38
2023-04-06T05:59:12.875Z,100658.53
2023-04-06T06:01:40.012Z,100696.13
2023-04-06T06:04:07.482Z,100680.13
2023-04-06T06:06:34.822Z,100681.81
2023-04-06T06:09:03.579Z,100701.44
2023-04-06T06:11:31.073Z,100684.84
2023-04-06T06:13:58.299Z,100708.94
2023-04-06T06:16:26.958Z,100711.66
2023-04-06T06:18:54.587Z,100710.78
2023-04-06T06:21:21.827Z,100692.44
2023-04-06T06:23:50.345Z,100643.06
2023-04-06T06:26:17.827Z,100705.38
2023-04-06T06:28:45.352Z,100712.28
2023-04-06T06:31:12.488Z,100707.66
2023-04-06T06:33:41.262Z,100643.72
2023-04-06T06:36:11.025Z,100646.88
2023-04-06T06:38:39.219Z,100694.78
2023-04-06T06:41:06.531Z,100697.75
2023-04-06T06:43:34.284Z,100691.44
2023-04-06T06:46:01.608Z,100687.84
2023-04-06T06:48:29.075Z,100629.03
2023-04-06T06:50:58.092Z,100615.66
2023-04-06T06:53:25.633Z,100608.44
2023-04-06T06:55:52.745Z,100660.03
2023-04-06T06:58:23.058Z,100696.28
2023-04-06T07:00:50.146Z,100692.91
2023-04-06T07:03:17.384Z,100636.72
2023-04-06T07:05:51.093Z,100704.22
2023-04-06T07:08:20.013Z,100689.88
2023-04-06T07:10:47.107Z,100677.50
2023-04-06T07:13:19.150Z,100618.94
2023-04-06T07:15:47.594Z,100660.75
2023-04-06T07:18:15.058Z,100683.66
2023-04-06T07:20:42.234Z,100616.78
2023-04-06T07:23:09.868Z,100629.09
2023-04-06T07:25:39.591Z,100711.47
2023-04-06T07:28:06.962Z,100641.31
2023-04-06T07:30:36.486Z,100702.63
2023-04-06T07:33:06.506Z,100657.78
2023-04-06T07:35:33.699Z,100696.84
2023-04-06T07:38:00.980Z,100615.53
2023-04-06T07:40:28.162Z,100621.41
2023-04-06T07:42:58.086Z,100698.84
2023-04-06T07:45:25.413Z,100623.59
2023-04-06T07:47:52.746Z,100694.22
2023-04-06T07:50:19.932Z,100697.53
2023-04-06T07:52:47.271Z,100696.84
2023-04-06T07:55:14.396Z,100663.41
2023-04-06T07:57:41.720Z,100676.72
2023-04-06T08:00:11.738Z,100677.81
2023-04-06T08:02:39.294Z,100662.31
2023-04-06T08:05:08.055Z,100680.47
2023-04-06T08:07:35.427Z,100678.34
2023-04-06T08:10:02.678Z,100623.41
2023-04-06T08:12:30.103Z,100636.41
2023-04-06T08:14:57.928Z,100619.84
2023-04-06T08:17:28.634Z,100689.97
2023-04-06T08:19:55.686Z,100696.25
2023-04-06T08:22:23.513Z,100694.31
2023-04-06T08:24:50.629Z,100619.44
2023-04-06T08:27:18.187Z,100696.09
2023-04-06T08:29:45.268Z,100700.75
2023-04-06T08:32:12.668Z,100586.63
2023-04-06T08:34:41.531Z,100695.06
2023-04-06T08:37:08.627Z,100687.72
2023-04-06T08:39:36.433Z,100618.75
2023-04-06T08:42:04.231Z,100694.47
2023-04-06T08:44:33.268Z,100648.66
2023-04-06T08:47:00.916Z,100694.47
2023-04-06T08:49:29.212Z,100643.38
2023-04-06T08:51:58.428Z,100685.47
2023-04-06T08:54:25.691Z,100688.88
2023-04-06T08:56:54.216Z,100598.53
2023-04-06T08:59:21.396Z,100615.47
2023-04-06T09:01:49.084Z,100642.19
2023-04-06T09:04:16.916Z,100649.84
2023-04-06T09:06:44.773Z,100648.72
2023-04-06T09:09:16.578Z,100655.31
2023-04-06T09:11:46.703Z,100656.97
2023-04-06T09:14:13.719Z,100662.44
2023-04-06T09:16:42.876Z,100683.06
2023-04-06T09:19:10.681Z,100676.09
2023-04-06T09:21:38.193Z,100637.09
2023-04-06T09:24:07.490Z,100601.41
2023-04-06T09:26:48.054Z,100680.13
2023-04-06T09:29:25.179Z,100645.50
2023-04-06T09:31:52.681Z,100677.59
2023-04-06T09:34:24.381Z,100672.09
2023-04-06T09:36:53.163Z,100674.28
2023-04-06T09:39:22.278Z,100672.50
2023-04-06T09:41:52.950Z,100600.34
2023-04-06T09:44:22.038Z,100657.66
2023-04-06T09:46:58.950Z,100666.78
2023-04-06T09:49:29.044Z,100592.00
2023-04-06T09:52:00.689Z,100606.81
2023-04-06T09:54:30.609Z,100627.84
2023-04-06T09:57:05.269Z,100667.09
2023-04-06T09:59:41.517Z,100662.88
2023-04-06T10:02:16.976Z,100645.81
2023-04-06T10:04:51.287Z,100648.78
2023-04-06T10:07:19.336Z,100658.69
2023-04-06T10:09:47.658Z,100642.81
2023-04-06T10:12:16.951Z,100587.75
2023-04-06T10:14:44.839Z,100658.84
2023-04-06T10:17:12.746Z,100651.84
2023-04-06T10:19:50.965Z,100634.59
2023-04-06T10:22:27.620Z,100603.00
2023-04-06T10:24:54.834Z,100653.81
2023-04-06T10:27:30.993Z,100657.25
2023-04-06T10:30:03.443Z,100628.56
2023-04-06T10:32:36.778Z,100651.78
2023-04-06T10:35:08.205Z,100651.22
2023-04-06T10:37:48.472Z,100640.63
2023-04-06T10:40:24.917Z,100656.84
2023-04-06T10:42:54.606Z,100637.44
2023-04-06T10:45:23.647Z,100540.50
2023-04-06T10:47:54.228Z,100639.84
2023-04-06T10:50:21.997Z,100554.31
2023-04-06T10:53:00.390Z,100627.28
2023-04-06T10:55:29.389Z,100541.66
2023-04-06T10:57:58.177Z,100628.81
2023-04-06T11:00:31.009Z,100555.72
2023-04-06T11:03:07.643Z,100537.16
2023-04-06T11:05:34.753Z,100628.84
2023-04-06T11:08:02.222Z,100554.72
2023-04-06T11:10:31.191Z,100549.16
2023-04-06T11:13:00.398Z,100611.94
2023-04-06T11:15:27.421Z,100538.94
2023-04-06T11:17:54.875Z,100558.75
2023-04-06T11:20:22.022Z,100634.44
2023-04-06T11:22:51.580Z,100585.81
2023-04-06T11:25:19.416Z,100556.09
2023-04-06T11:27:47.932Z,100543.34
2023-04-06T11:30:16.670Z,100591.50
2023-04-06T11:32:45.731Z,100642.13
2023-04-06T11:35:20.682Z,100593.03
2023-04-06T11:37:49.981Z,100539.75
2023-04-06T11:40:21.793Z,100621.88
2023-04-06T11:42:53.731Z,100619.06
2023-04-06T11:45:22.705Z,100625.00
2023-04-06T11:47:58.726Z,100613.88
2023-04-06T11:50:26.625Z,100619.94
2023-04-06T11:53:01.978Z,100622.13
2023-04-06T11:55:29.560Z,100613.19
2023-04-06T11:57:57.852Z,100613.94
2023-04-06T12:00:26.594Z,100532.72
2023-04-06T12:02:53.908Z,100601.31
2023-04-06T12:05:21.068Z,100614.81
2023-04-06T12:07:48.318Z,100599.97
2023-04-06T12:10:15.451Z,100610.47
2023-04-06T12:12:42.832Z,100612.41
2023-04-06T12:15:14.028Z,100602.44
2023-04-06T12:17:44.533Z,100616.63
2023-04-06T12:20:22.520Z,100608.47
2023-04-06T12:23:21.835Z,100615.81
2023-04-06T12:25:52.572Z,100611.34
2023-04-06T12:28:21.669Z,100615.91
2023-04-06T12:30:49.895Z,100603.38
2023-04-06T12:33:27.687Z,100612.91
2023-04-06T12:35:55.345Z,100618.56
2023-04-06T12:38:22.966Z,100597.78
2023-04-06T12:40:50.179Z,100571.69
2023-04-06T12:43:17.630Z,100613.53
2023-04-06T12:45:44.827Z,100531.56
2023-04-06T12:48:12.527Z,100617.50
2023-04-06T12:50:40.981Z,100539.97
2023-04-06T12:53:08.679Z,100605.34
2023-04-06T12:55:35.818Z,100536.59
2023-04-06T12:58:03.092Z,100615.78
2023-04-06T13:00:30.487Z,100595.47
2023-04-06T13:02:58.148Z,100602.47
2023-04-06T13:05:26.469Z,100597.66
2023-04-06T13:07:56.525Z,100602.09
2023-04-06T13:10:23.529Z,100593.16
2023-04-06T13:12:51.056Z,100603.88
2023-04-06T13:15:18.300Z,100598.34
2023-04-06T13:17:45.757Z,100598.03
2023-04-06T13:20:13.496Z,100577.59
2023-04-06T13:22:41.187Z,100595.97
2023-04-06T13:25:13.365Z,100555.69
2023-04-06T13:27:42.191Z,100599.22
2023-04-06T13:30:18.972Z,100568.91
2023-04-06T13:32:46.654Z,100563.63
2023-04-06T13:35:13.757Z,100589.34
2023-04-06T13:37:40.998Z,100586.56
2023-04-06T13:40:11.180Z,100567.50
2023-04-06T13:42:41.803Z,100571.94
2023-04-06T13:45:10.059Z,100523.97
2023-04-06T13:47:37.609Z,100516.88
2023-04-06T13:50:05.636Z,100506.66
2023-04-06T13:52:33.434Z,100559.88
2023-04-06T13:55:03.482Z,100499.34
2023-04-06T13:57:32.191Z,100571.44
2023-04-06T13:59:59.215Z,100560.63
2023-04-06T14:02:28.580Z,100569.41
2023-04-06T14:04:56.670Z,100572.41
2023-04-06T14:07:24.739Z,100473.25
2023-04-06T14:09:51.833Z,100558.94
2023-04-06T14:12:19.588Z,100567.38
2023-04-06T14:14:48.239Z,100568.41
2023-04-06T14:17:15.656Z,100472.91
2023-04-06T14:19:42.686Z,100568.44
2023-04-06T14:22:09.991Z,100557.34
2023-04-06T14:24:37.851Z,100545.91
2023-04-06T14:27:05.241Z,100551.31
2023-04-06T14:29:32.321Z,100567.75
2023-04-06T14:32:01.069Z,100534.63
2023-04-06T14:34:28.461Z,100483.97
2023-04-06T14:36:56.228Z,100480.59
2023-04-06T14:39:23.254Z,100573.00
2023-04-06T14:41:51.097Z,100551.84
2023-04-06T14:44:18.557Z,100564.22
2023-04-06T14:46:46.054Z,100573.63
2023-04-06T14:49:17.501Z,100553.28
2023-04-06T14:51:45.158Z,100577.69
2023-04-06T14:54:12.616Z,100485.81
2023-04-06T14:56:40.107Z,100572.84
2023-04-06T14:59:06.983Z,100575.94
2023-04-06T15:01:36.926Z,100569.91
2023-04-06T15:04:04.692Z,100569.03
2023-04-06T15:06:33.647Z,100569.59
2023-04-06T15:09:00.683Z,100571.06
2023-04-06T15:11:27.956Z,100588.34
2023-04-06T15:13:54.993Z,100584.25
2023-04-06T15:16:22.448Z,100583.34
2023-04-06T15:18:49.457Z,100543.41
2023-04-06T15:21:16.755Z,100585.97
2023-04-06T15:24:00.412Z,100566.91
2023-04-06T15:26:27.728Z,100572.47
2023-04-06T15:29:09.532Z,100580.00
2023-04-06T15:31:38.769Z,100546.00
2023-04-06T15:34:06.462Z,100585.41
2023-04-06T15:36:34.006Z,100547.25
2023-04-06T15:39:03.366Z,100594.44
2023-04-06T15:41:30.775Z,100588.31
2023-04-06T15:43:58.040Z,100594.44
2023-04-06T15:46:28.157Z,100591.19
2023-04-06T15:48:55.917Z,100590.28
2023-04-06T15:51:24.373Z,100599.72
2023-04-06T15:53:51.512Z,100600.03
2023-04-06T15:56:21.071Z,100604.91
2023-04-06T15:58:48.593Z,100609.19
2023-04-06T16:01:17.448Z,100597.47
2023-04-06T16:03:45.595Z,100600.13
2023-04-06T16:06:13.368Z,100608.84
2023-04-06T16:08:41.172Z,100590.78
2023-04-06T16:11:09.359Z,100616.59
2023-04-06T16:13:38.108Z,100571.13
2023-04-06T16:16:06.256Z,100614.94
2023-04-06T16:18:35.817Z,100624.75
2023-04-06T16:21:04.150Z,100617.31
2023-04-06T16:23:31.457Z,100626.03
2023-04-06T16:25:58.809Z,100631.31
2023-04-06T16:28:26.550Z,100635.94
2023-04-06T16:30:55.228Z,100637.66
2023-04-06T16:33:23.989Z,100632.25
2023-04-06T16:35:51.304Z,100635.53
2023-04-06T16:38:18.565Z,100638.84
2023-04-06T16:40:45.843Z,100639.94
2023-04-06T16:43:14.497Z,100614.81
2023-04-06T16:45:42.362Z,100627.84
2023-04-06T16:48:12.071Z,100630.84
2023-04-06T16:50:40.131Z,100631.34
2023-04-06T16:53:07.020Z,100635.16
2023-04-06T16:55:34.518Z,100638.19
2023-04-06T16:58:05.225Z,100639.16
2023-04-06T17:00:33.925Z,100583.56
2023-04-06T17:03:01.168Z,100625.44
2023-04-06T17:05:30.840Z,100637.69
2023-04-06T17:07:58.026Z,100631.75
2023-04-06T17:10:33.410Z,100642.38
2023-04-06T17:13:04.253Z,100648.47
2023-04-06T17:15:31.774Z,100647.94
2023-04-06T17:18:01.578Z,100647.91
2023-04-06T17:20:30.617Z,100653.75
2023-04-06T17:22:59.745Z,100648.78
2023-04-06T17:25:27.181Z,100643.59
2023-04-06T17:27:54.343Z,100651.63
2023-04-06T17:30:21.740Z,100625.78
2023-04-06T17:32:48.875Z,100656.75
2023-04-06T17:35:16.337Z,100663.09
2023-04-06T17:37:45.799Z,100654.34
2023-04-06T17:40:13.596Z,100662.44
2023-04-06T17:42:40.725Z,100662.44
2023-04-06T17:45:11.124Z,100666.94
2023-04-06T17:47:38.094Z,100645.84
2023-04-06T17:50:06.754Z,100624.63
2023-04-06T17:52:33.773Z,100600.63
2023-04-06T17:55:02.565Z,100666.94
2023-04-06T17:57:29.917Z,100662.31
2023-04-06T17:59:57.375Z,100670.34
2023-04-06T18:02:26.129Z,100667.91
2023-04-06T18:04:56.128Z,100663.97
2023-04-06T18:07:23.215Z,100669.78
2023-04-06T18:09:51.016Z,100661.88
2023-04-06T18:12:22.595Z,100678.97
2023-04-06T18:14:50.159Z,100676.25
2023-04-06T18:17:17.202Z,100679.78
2023-04-06T18:19:45.263Z,100679.41
2023-04-06T18:22:14.405Z,100663.81
2023-04-06T18:24:43.323Z,100681.41
2023-04-06T18:27:13.117Z,100688.97
2023-04-06T18:29:45.156Z,100691.97
2023-04-06T18:32:14.230Z,100626.91
2023-04-06T18:34:42.998Z,100635.25
2023-04-06T18:37:10.175Z,100691.19
2023-04-06T18:39:37.942Z,100585.25
2023-04-06T18:42:05.558Z,100602.59
2023-04-06T18:44:33.101Z,100702.13
2023-04-06T18:47:01.800Z,100657.53
2023-04-06T18:49:29.011Z,100609.75
2023-04-06T18:51:59.257Z,100641.81
2023-04-06T18:54:27.014Z,100609.66
2023-04-06T18:56:54.073Z,100703.50
2023-04-06T18:59:21.394Z,100704.47
2023-04-06T19:01:51.219Z,100699.00
2023-04-06T19:04:20.436Z,100701.19
2023-04-06T19:06:50.069Z,100694.97
2023-04-06T19:09:17.605Z,100693.38
2023-04-06T19:11:44.666Z,100551.19
2023-04-06T19:14:12.106Z,100686.06
2023-04-06T19:16:42.727Z,100610.69
2023-04-06T19:19:10.074Z,100604.28
2023-04-06T19:21:38.706Z,100667.16
2023-04-06T19:24:06.969Z,100658.91
2023-04-06T19:26:34.192Z,100662.56
2023-04-06T19:29:01.596Z,100687.00
2023-04-06T19:31:28.714Z,100568.25
2023-04-06T19:33:56.307Z,100681.03
2023-04-06T19:36:23.462Z,100677.91
2023-04-06T19:38:52.126Z,100589.03
2023-04-06T19:41:19.249Z,100645.41
2023-04-06T19:43:46.670Z,100589.75
2023-04-06T19:46:15.432Z,100669.53
2023-04-06T19:48:43.431Z,100548.84
2023-04-06T19:51:10.522Z,100674.13
2023-04-06T19:53:41.049Z,100586.31
2023-04-06T19:56:10.329Z,100544.38
2023-04-06T19:58:38.088Z,100672.53
2023-04-06T20:01:05.224Z,100588.72
2023-04-06T20:03:33.469Z,100673.66
2023-04-06T20:06:01.050Z,100598.00
2023-04-06T20:08:29.837Z,100676.00
2023-04-06T20:11:01.638Z,100598.66
2023-04-06T20:13:31.484Z,100670.28
2023-04-06T20:15:58.958Z,100584.22
2023-04-06T20:18:26.609Z,100679.38
2023-04-06T20:20:54.584Z,100672.59
2023-04-06T20:23:22.129Z,100585.91
2023-04-06T20:25:49.480Z,100555.81
2023-04-06T20:28:16.945Z,100580.94
2023-04-06T20:30:45.370Z,100572.66
2023-04-06T20:33:13.091Z,100668.31
2023-04-06T20:35:40.057Z,100637.06
2023-04-06T20:38:32.252Z,100654.34
2023-04-06T20:41:03.819Z,100538.63
2023-04-06T20:43:31.736Z,100651.31
2023-04-06T20:46:02.632Z,100628.91
2023-04-06T20:48:33.450Z,100554.28
2023-04-06T20:51:05.656Z,100650.19
2023-04-06T20:53:32.798Z,100654.09
2023-04-06T20:56:01.681Z,100618.44
2023-04-06T20:58:28.657Z,100633.25
2023-04-06T21:00:55.908Z,100647.66
2023-04-06T21:03:24.333Z,100655.03
2023-04-06T21:05:57.458Z,100639.38
2023-04-06T21:08:24.446Z,100654.34
2023-04-06T21:10:51.739Z,100620.47
2023-04-06T21:13:18.847Z,100666.19
2023-04-06T21:15:46.270Z,100633.72
2023-04-06T21:18:13.340Z,100614.16
2023-04-06T21:20:42.131Z,100650.19
2023-04-06T21:23:09.252Z,100633.91
2023-04-06T21:25:37.005Z,100599.06
2023-04-06T21:28:04.785Z,100613.53
2023-04-06T21:30:37.275Z,100639.00
2023-04-06T21:33:04.549Z,100604.41
2023-04-06T21:35:31.855Z,100631.78
2023-04-06T21:38:02.896Z,100640.84
2023-04-06T21:40:30.231Z,100637.16
2023-04-06T21:43:00.477Z,100631.34
2023-04-06T21:45:29.919Z,100635.97
2023-04-06T21:47:56.876Z,100630.69
2023-04-06T21:50:24.115Z,100632.50
2023-04-06T21:52:51.589Z,100625.78
2023-04-06T21:55:20.599Z,100629.41
2023-04-06T21:57:47.571Z,100625.34
2023-04-06T22:00:16.490Z,100582.44
2023-04-06T22:02:45.665Z,100628.69
2023-04-06T22:05:13.818Z,100591.44
2023-04-06T22:07:41.234Z,100622.25
2023-04-06T22:10:08.764Z,100622.72
2023-04-06T22:12:37.242Z,100588.03
2023-04-06T22:15:06.044Z,100614.50
2023-04-06T22:17:33.363Z,100603.97
2023-04-06T22:20:00.765Z,100590.69
2023-04-06T22:22:27.734Z,100549.38
2023-04-06T22:24:55.028Z,100609.88
2023-04-06T22:27:22.174Z,100559.81
2023-04-06T22:29:50.804Z,100599.97
2023-04-06T22:32:18.074Z,100606.94
2023-04-06T22:34:45.627Z,100489.44
2023-04-06T22:37:12.662Z,100604.28
2023-04-06T22:39:40.141Z,100573.53
2023-04-06T22:42:07.264Z,100550.88
2023-04-06T22:44:34.546Z,100574.28
2023-04-06T22:47:02.848Z,100586.81
2023-04-06T22:49:30.323Z,100560.91
2023-04-06T22:51:57.359Z,100589.69
2023-04-06T22:54:24.849Z,100550.88
2023-04-06T22:56:51.853Z,100595.69
2023-04-06T22:59:19.114Z,100593.91
2023-04-06T23:01:46.366Z,100496.44
2023-04-06T23:04:15.106Z,100590.41
2023-04-06T23:06:42.118Z,100569.53
2023-04-06T23:09:10.334Z,100594.41
2023-04-06T23:11:37.392Z,100562.75
2023-04-06T23:14:05.071Z,100594.72
2023-04-06T23:16:32.064Z,100592.81
2023-04-06T23:18:59.253Z,100566.25
2023-04-06T23:21:28.029Z,100574.06
2023-04-06T23:23:56.449Z,100517.41
2023-04-06T23:26:24.496Z,100567.63
2023-04-06T23:28:51.821Z,100582.38
2023-04-06T23:31:19.005Z,100585.53
2023-04-06T23:33:46.773Z,100590.41
2023-04-06T23:36:14.008Z,100562.81
2023-04-06T23:38:42.703Z,100563.22
2023-04-06T23:41:13.663Z,100541.19
2023-04-06T23:43:40.644Z,100573.75
2023-04-06T23:46:08.270Z,100561.53
2023-04-06T23:48:35.396Z,100586.59
2023-04-06T23:51:02.770Z,100547.78
2023-04-06T23:53:30.090Z,100580.78
2023-04-06T23:55:58.708Z,100580.91
2023-04-06T23:58:25.803Z,100571.94
